Gulf - Magdalen - northwestern half: Past 24 Hour Conditions

 

Grates Cove

01:30 AM NDT 30 August 2014
This table is a summary of hourly weather conditions for the past 24 hours.
Date / Time
(NDT)
Wind(knots) Conditions Visibility(km) Pressure(kPa) Air tempC) Relative humidity(%) Dew pointC)
30 August 2014
1:30 NNW 12 gust 19 N/A N/A 101.2 9 85 7
0:30 N 9 gust 16 N/A N/A 101.1 10 84 7
29 August 2014
23:30 N 11 gust 20 N/A N/A 101.1 10 78 6
22:30 NNE 12 gust 27 N/A N/A 101.0 10 78 7
21:30 NNE 23 gust 29 N/A N/A 100.9 11 71 6
20:30 NNE 19 gust 32 N/A N/A 100.8 10 77 6
19:30 NNE 25 gust 33 N/A N/A 100.7 10 76 6
18:30 NNE 23 gust 35 N/A N/A 100.6 11 78 7
17:30 NNE 31 N/A N/A 100.5 11 78 7
16:30 NNE 32 gust 39 N/A N/A 100.4 11 76 7
15:30 NNE 31 N/A N/A 100.3 11 78 7
14:30 NNE 33 gust 41 N/A N/A 100.2 11 79 7
13:30 NNE 34 gust 40 N/A N/A 100.1 11 84 8
12:30 NE 33 gust 38 N/A N/A 100.1 11 88 9
11:30 NE 36 gust 41 N/A N/A 100.0 10 94 10
10:30 NE 33 gust 38 N/A N/A 100.0 11 96 10
9:30 NE 35 gust 42 N/A N/A 99.9 10 93 9
8:30 ENE 35 gust 44 N/A N/A 99.9 11 93 10
7:30 ENE 35 gust 41 N/A N/A 99.9 10 98 10
6:30 ENE 35 N/A N/A 99.9 11 98 11
5:30 ENE 28 gust 33 N/A N/A 100.0 11 97 11
4:30 ENE 28 gust 33 N/A N/A 100.0 12 96 11
3:30 ENE 30 gust 35 N/A N/A 100.1 12 96 11
2:30 ENE 29 gust 35 N/A N/A 100.1 12 98 11
1:30 ENE 28 N/A N/A 100.2 12 98 11
 
Map of Atlantic - Newfoundland marine weather areas Southwestern Grand Banks - 44138 Banquereau - 44139 Tail of the Bank - 44140 Nickerson Bank - 44251 Northeast Burgeo Bank - 44255 Blanc-Sablon Airport Cap Whittle Chevery Natashquan Airport Heath Point Miscou Island Grand Étang Ingonish Beach North Mountain St.Paul Island J.A. Douglas McCurdy Sydney Airport Charlottetown Airport East Point North Cape Argentia Bonavista Burgeo Cape Race Corner Brook Daniel's Harbour Englee Ferolle Point La Scie Port aux Basques Rocky Harbour Sagona Island St. Anthony Airport St. John's Int'l Airport St. Lawrence Stephenville Airport Twillingate Winterland Wreckhouse Cartwright Airport Mary's Harbour Grates Cove Pool's Island Marticot Island Long Pond Îles de la Madeleine Airport
Legend: buoyBuoy land stationLand Station